.
WxDataArchive / Data Records for 2008-08-03
2008-08-02 August 2008 2008-08-04

Data Records for Sunday, 03 August 2008

Time	Temp	Chill	HIndex	Humid	Dewpt	 Wind 	HiWind	WindDir	Rain 	Barom 
-----	----	-----	------	-----	-----	------	------	-------	-----	----- 
00:00	63.9	63.9	63.9	84	59.0	0	0	---	0.00	29.903 
00:05	63.7	63.7	63.7	84	58.8	0	0	---	0.00	29.903 
00:10	63.5	63.5	63.5	85	58.9	0	0	---	0.00	29.903 
00:15	63.4	63.4	63.4	85	58.8	0	0	---	0.00	29.904 
00:20	63.2	63.2	63.2	85	58.6	0	0	---	0.00	29.904 
00:25	63.2	63.2	63.2	86	58.9	0	0	---	0.00	29.904 
00:30	63.1	63.1	63.1	86	58.8	0	0	---	0.00	29.911 
00:35	63.1	63.1	63.1	87	59.2	0	0	---	0.00	29.911 
00:40	62.9	62.9	62.9	87	59.0	0	0	---	0.00	29.911 
00:45	62.9	62.9	62.9	87	59.0	0	0	---	0.00	29.909 
00:50	63.1	63.1	63.1	87	59.2	0	0	---	0.00	29.909 
00:55	63.1	63.1	63.1	87	59.2	0	0	---	0.00	29.909 
01:00	63.1	63.1	63.1	86	58.8	0	0	---	0.00	29.906 
01:05	62.9	62.9	62.9	86	58.6	0	0	---	0.00	29.906 
01:10	62.9	62.9	62.9	87	59.0	0	0	---	0.00	29.906 
01:15	62.7	62.7	62.7	87	58.8	0	0	---	0.00	29.912 
01:20	62.6	62.6	62.6	87	58.7	0	0	---	0.00	29.912 
01:25	62.4	62.4	62.4	87	58.5	0	0	---	0.00	29.912 
01:30	62.4	62.4	62.4	88	58.8	0	0	---	0.00	29.912 
01:35	62.3	62.3	62.3	88	58.7	0	0	---	0.00	29.912 
01:40	62.1	62.1	62.1	88	58.5	0	0	---	0.00	29.912 
01:45	62.0	62.0	62.0	88	58.4	0	0	---	0.00	29.914 
01:50	61.8	61.8	61.8	89	58.5	0	0	---	0.00	29.914 
01:55	61.8	61.8	61.8	89	58.5	0	0	---	0.00	29.914 
02:00	61.8	61.8	61.8	89	58.5	0	0	---	0.00	29.914 
02:05	61.6	61.6	61.6	89	58.3	0	0	---	0.00	29.914 
02:10	61.6	61.6	61.6	90	58.6	0	0	---	0.00	29.914 
02:15	61.6	61.6	61.6	90	58.6	0	0	---	0.00	29.914 
02:20	61.5	61.5	61.5	90	58.5	0	0	---	0.00	29.914 
02:25	61.3	61.3	61.3	90	58.3	0	0	---	0.00	29.914 
02:30	61.3	61.3	61.3	90	58.3	0	0	---	0.00	29.912 
02:35	61.2	61.2	61.2	90	58.2	0	0	---	0.00	29.912 
02:40	61.0	61.0	61.0	91	58.4	0	0	---	0.00	29.912 
02:45	61.0	61.0	61.0	91	58.4	0	0	---	0.00	29.918 
02:50	61.0	61.0	61.0	91	58.4	0	0	---	0.00	29.918 
02:55	60.9	60.9	60.9	91	58.3	0	0	---	0.00	29.918 
03:00	60.9	60.9	60.9	91	58.3	0	0	---	0.00	29.916 
03:05	60.7	60.7	60.7	91	58.1	0	0	---	0.00	29.916 
03:10	60.7	60.7	60.7	91	58.1	0	0	---	0.00	29.916 
03:15	60.5	60.5	60.5	91	57.9	0	0	---	0.00	29.917 
03:20	60.5	60.5	60.5	91	57.9	0	0	---	0.00	29.917 
03:25	60.4	60.4	60.4	92	58.1	0	0	---	0.00	29.917 
03:30	60.4	60.4	60.4	92	58.1	0	0	---	0.00	29.922 
03:35	60.2	60.2	60.2	92	57.9	0	0	---	0.00	29.922 
03:40	60.1	60.1	60.1	92	57.8	0	0	---	0.00	29.922 
03:45	59.9	59.9	59.9	92	57.6	0	0	---	0.00	29.924 
03:50	59.9	59.9	59.9	92	57.6	0	0	---	0.00	29.924 
03:55	59.8	59.8	59.8	92	57.5	0	0	---	0.00	29.924 
04:00	59.6	59.6	59.6	92	57.3	0	0	---	0.00	29.934 
04:05	59.6	59.6	59.6	92	57.3	0	0	---	0.00	29.934 
04:10	59.5	59.5	59.5	92	57.2	0	0	---	0.00	29.934 
04:15	59.5	59.5	59.5	93	57.5	0	0	---	0.00	29.939 
04:20	59.3	59.3	59.3	93	57.3	0	0	---	0.00	29.939 
04:25	59.3	59.3	59.3	93	57.3	0	0	---	0.00	29.939 
04:30	59.2	59.2	59.2	93	57.2	0	0	---	0.00	29.939 
04:35	59.2	59.2	59.2	93	57.2	0	0	---	0.00	29.939 
04:40	59.0	59.0	59.0	93	57.0	0	0	---	0.00	29.939 
04:45	59.0	59.0	59.0	93	57.0	0	0	---	0.00	29.940 
04:50	59.0	59.0	59.0	94	57.3	0	0	---	0.00	29.940 
04:55	58.9	58.9	58.9	94	57.2	0	0	---	0.00	29.940 
05:00	58.9	58.9	58.9	94	57.2	0	0	---	0.00	29.940 
05:05	58.7	58.7	58.7	94	57.0	0	0	---	0.00	29.940 
05:10	58.6	58.6	58.6	94	56.9	0	0	---	0.00	29.940 
05:15	58.6	58.6	58.6	94	56.9	0	0	---	0.00	29.937 
05:20	58.4	58.4	58.4	94	56.7	0	0	---	0.00	29.937 
05:25	58.4	58.4	58.4	94	56.7	0	0	---	0.00	29.937 
05:30	58.4	58.4	58.4	94	56.7	0	0	---	0.00	29.939 
05:35	58.4	58.4	58.4	94	56.7	0	0	---	0.00	29.939 
05:40	58.4	58.4	58.4	94	56.7	0	0	---	0.00	29.939 
05:45	58.4	58.4	58.4	95	57.0	0	0	---	0.00	29.938 
05:50	58.4	58.4	58.4	95	57.0	0	0	---	0.00	29.938 
05:55	58.4	58.4	58.4	95	57.0	0	0	---	0.00	29.938 
06:00	58.6	58.6	58.6	95	57.2	0	0	---	0.00	29.942 
06:05	58.6	58.6	58.6	95	57.2	0	0	---	0.00	29.942 
06:10	58.6	58.6	58.6	95	57.2	0	0	---	0.00	29.942 
06:15	58.7	58.7	58.7	95	57.3	0	0	---	0.00	29.951 
06:20	58.9	58.9	58.9	95	57.5	0	1	270	0.00	29.951 
06:25	59.0	59.0	59.0	95	57.6	0	0	---	0.00	29.951 
06:30	59.5	59.5	59.5	96	58.4	0	1	270	0.00	29.955 
06:35	60.1	60.1	60.1	96	59.0	0	1	270	0.00	29.955 
06:40	60.7	60.7	60.7	95	59.3	0	0	---	0.00	29.955 
06:45	61.2	61.2	61.2	95	59.8	0	0	---	0.00	29.969 
06:50	61.8	61.8	61.8	94	60.1	0	0	---	0.00	29.969 
06:55	62.7	62.7	62.7	92	60.3	0	0	---	0.00	29.969 
07:00	63.4	63.4	63.4	90	60.4	0	0	---	0.00	29.973 
07:05	64.2	64.2	64.2	86	59.9	0	2	270	0.00	29.973 
07:10	64.8	64.8	64.8	82	59.2	1	3	270	0.00	29.973 
07:15	65.6	65.6	65.6	79	58.9	2	4	90	0.00	29.969 
07:20	66.1	66.1	66.1	78	59.0	1	3	112	0.00	29.969 
07:25	66.8	66.8	66.8	77	59.3	0	1	112	0.00	29.969 
07:30	67.6	67.6	67.6	75	59.4	0	2	112	0.00	29.979 
07:35	68.4	68.4	68.4	74	59.8	0	2	112	0.00	29.979 
07:40	68.6	68.6	68.6	73	59.6	1	2	112	0.00	29.979 
07:45	68.3	68.3	68.3	74	59.7	0	2	112	0.00	29.973 
07:50	68.1	68.1	68.1	74	59.5	0	1	112	0.00	29.973 
07:55	67.9	67.9	67.9	75	59.7	0	1	112	0.00	29.973 
08:00	68.4	68.4	68.4	73	59.4	0	2	112	0.00	29.977 
08:05	69.1	69.1	69.1	71	59.3	0	2	112	0.00	29.977 
08:10	69.9	69.9	69.9	71	60.1	0	2	112	0.00	29.977 
08:15	70.1	70.1	70.1	73	61.0	1	3	112	0.00	29.980 
08:20	70.8	70.8	70.8	70	60.5	1	3	112	0.00	29.980 
08:25	71.3	71.3	71.3	69	60.6	0	2	112	0.00	29.980 
08:30	72.0	72.0	72.0	68	60.8	0	2	112	0.00	29.971 
08:35	72.5	72.5	72.5	67	60.9	1	3	112	0.00	29.971 
08:40	73.0	73.0	73.0	66	61.0	1	2	112	0.00	29.971 
08:45	73.3	73.3	73.3	66	61.2	0	2	112	0.00	29.970 
08:50	73.9	73.9	73.9	65	61.4	1	2	112	0.00	29.970 
08:55	73.7	73.7	73.7	67	62.0	1	3	112	0.00	29.970 
09:00	74.0	74.0	74.0	67	62.3	0	2	112	0.00	29.970 
09:05	74.7	74.7	74.7	65	62.1	0	1	112	0.00	29.970 
09:10	74.9	74.9	74.9	63	61.4	1	2	158	0.00	29.970 
09:15	74.9	74.9	74.9	63	61.4	0	1	158	0.00	29.983 
09:20	75.4	75.4	77.4	64	62.4	1	3	90	0.00	29.983 
09:25	76.0	76.0	77.9	65	63.4	0	3	90	0.00	29.983 
09:30	76.3	76.3	78.2	62	62.3	1	4	90	0.00	29.979 
09:35	76.1	76.1	78.0	63	62.6	1	3	90	0.00	29.979 
09:40	76.3	76.3	78.2	63	62.8	1	4	90	0.00	29.979 
09:45	76.5	76.5	78.4	62	62.5	0	3	90	0.00	29.977 
09:50	76.7	76.7	78.5	62	62.7	1	3	90	0.00	29.977 
09:55	77.0	77.0	78.8	62	63.0	1	4	90	0.00	29.977 
10:00	76.8	76.8	78.6	62	62.8	2	4	90	0.00	29.978 
10:05	76.7	76.7	78.5	63	63.1	2	6	90	0.00	29.978 
10:10	76.8	76.8	78.6	62	62.8	1	3	90	0.00	29.978 
10:15	77.4	77.4	79.1	59	61.9	1	5	90	0.00	29.983 
10:20	77.6	77.6	79.3	59	62.1	1	3	112	0.00	29.983 
10:25	77.6	77.6	79.3	60	62.6	2	5	112	0.00	29.983 
10:30	77.7	77.7	79.4	59	62.2	2	4	68	0.00	29.980 
10:35	78.3	78.3	79.9	58	62.3	1	4	90	0.00	29.980 
10:40	78.5	78.5	79.9	55	61.0	2	5	112	0.00	29.980 
10:45	78.5	78.5	80.0	57	62.0	2	5	112	0.00	29.980 
10:50	78.5	78.5	79.9	56	61.5	1	4	90	0.00	29.980 
10:55	78.6	78.6	79.8	52	59.5	1	2	90	0.00	29.980 
11:00	79.4	79.4	80.6	54	61.3	1	5	90	0.00	29.984 
11:05	79.6	79.6	80.6	52	60.4	1	3	90	0.00	29.984 
11:10	79.6	79.6	81.0	56	62.5	1	3	90	0.00	29.984 
11:15	79.6	79.6	80.7	53	60.9	1	3	90	0.00	29.982 
11:20	79.6	79.6	80.9	55	62.0	1	3	270	0.00	29.982 
11:25	79.9	79.9	80.9	52	60.7	1	3	248	0.00	29.982 
11:30	80.3	80.3	81.3	52	61.0	1	2	248	0.00	29.982 
11:35	80.9	80.9	81.9	52	61.6	1	3	68	0.00	29.982 
11:40	81.1	81.1	82.0	51	61.2	1	3	90	0.00	29.982 
11:45	81.1	81.1	81.4	46	58.3	0	2	90	0.00	29.986 
11:50	81.4	81.4	81.8	47	59.2	1	3	90	0.00	29.986 
11:55	81.2	81.2	81.7	48	59.6	2	4	90	0.00	29.986 
12:00	81.1	81.1	81.8	50	60.7	1	4	112	0.00	29.982 
12:05	80.9	80.9	81.5	49	59.9	1	4	112	0.00	29.982 
12:10	81.1	81.1	81.7	49	60.1	2	6	112	0.00	29.982 
12:15	80.9	80.9	81.5	49	59.9	2	6	90	0.00	29.982 
12:20	80.9	80.9	81.6	50	60.5	1	3	112	0.00	29.982 
12:25	80.9	80.9	81.3	47	58.8	2	4	90	0.00	29.982 
12:30	80.9	80.9	81.3	47	58.8	1	4	90	0.00	29.979 
12:35	81.4	81.4	82.1	50	60.9	0	3	90	0.00	29.979 
12:40	81.8	81.8	82.0	46	59.0	1	3	90	0.00	29.979 
12:45	81.8	81.8	82.3	48	60.2	1	3	90	0.00	29.971 
12:50	82.4	82.4	83.2	50	61.9	1	5	90	0.00	29.971 
12:55	82.4	82.4	82.9	48	60.7	3	6	90	0.00	29.971 
13:00	82.4	82.4	82.5	45	58.9	1	4	90	0.00	29.978 
13:05	83.0	83.0	83.2	46	60.1	0	2	90	0.00	29.978 
13:10	83.6	83.6	83.7	45	60.0	1	4	90	0.00	29.978 
13:15	83.4	83.4	83.5	45	59.8	1	3	90	0.00	29.974 
13:20	82.8	82.8	83.0	46	59.9	1	3	68	0.00	29.974 
13:25	81.8	81.8	82.1	47	59.6	1	3	270	0.00	29.974 
13:30	82.0	82.0	82.6	49	60.9	1	3	270	0.00	29.978 
13:35	82.2	82.2	82.4	46	59.3	1	2	270	0.00	29.978 
13:40	82.4	82.4	82.3	44	58.3	1	4	112	0.00	29.978 
13:45	83.2	83.2	84.1	50	62.6	1	5	90	0.00	29.966 
13:50	83.6	83.6	83.5	44	59.3	2	7	90	0.00	29.966 
13:55	83.8	83.8	83.9	45	60.2	1	4	90	0.00	29.966 
14:00	83.6	83.6	83.9	46	60.6	2	5	112	0.00	29.954 
14:05	83.6	83.6	83.5	44	59.3	2	4	90	0.00	29.954 
14:10	83.8	83.8	84.1	46	60.8	1	4	248	0.00	29.954 
14:15	83.8	83.8	83.7	44	59.5	2	4	112	0.00	29.947 
14:20	83.8	83.8	84.1	46	60.8	1	5	90	0.00	29.947 
14:25	83.4	83.4	83.7	46	60.4	1	3	90	0.00	29.947 
14:30	83.4	83.4	83.5	45	59.8	2	5	90	0.00	29.952 
14:35	83.8	83.8	85.3	52	64.3	1	4	90	0.00	29.952 
14:40	84.3	84.3	84.5	45	60.6	0	2	180	0.00	29.952 
14:45	84.9	84.9	85.2	45	61.2	1	3	112	0.00	29.951 
14:50	84.7	84.7	84.0	40	57.7	2	4	248	0.00	29.951 
14:55	84.7	84.7	84.7	44	60.3	1	3	248	0.00	29.951 
15:00	84.7	84.7	85.2	46	61.6	1	4	112	0.00	29.941 
15:05	84.7	84.7	85.2	46	61.6	1	4	112	0.00	29.941 
15:10	84.3	84.3	84.1	43	59.3	2	4	90	0.00	29.941 
15:15	84.0	84.0	84.0	44	59.7	1	6	90	0.00	29.935 
15:20	84.0	84.0	84.3	46	61.0	1	3	270	0.00	29.935 
15:25	83.8	83.8	83.9	45	60.2	2	5	90	0.00	29.935 
15:30	83.4	83.4	83.8	47	61.0	2	4	90	0.00	29.936 
15:35	83.2	83.2	83.0	43	58.3	1	4	112	0.00	29.936 
15:40	83.2	83.2	83.4	46	60.2	2	5	90	0.00	29.936 
15:45	83.0	83.0	83.1	45	59.4	2	5	90	0.00	29.934 
15:50	82.8	82.8	82.9	45	59.3	2	4	90	0.00	29.934 
15:55	82.8	82.8	83.0	46	59.9	2	6	90	0.00	29.934 
16:00	83.2	83.2	83.3	45	59.6	1	3	112	0.00	29.929 
16:05	83.2	83.2	83.3	45	59.6	1	4	112	0.00	29.929 
16:10	83.2	83.2	83.4	46	60.2	1	4	90	0.00	29.929 
16:15	83.4	83.4	83.3	44	59.2	2	5	112	0.00	29.929 
16:20	83.4	83.4	83.2	43	58.5	1	4	135	0.00	29.929 
16:25	83.4	83.4	83.3	44	59.2	1	4	112	0.00	29.929 
16:30	83.4	83.4	83.2	43	58.5	2	5	90	0.00	29.921 
16:35	83.4	83.4	83.5	45	59.8	1	3	112	0.00	29.921 
16:40	83.4	83.4	83.2	43	58.5	1	4	112	0.00	29.921 
16:45	83.4	83.4	82.9	41	57.2	1	4	90	0.00	29.921 
16:50	83.4	83.4	82.9	41	57.2	1	3	270	0.00	29.921 
16:55	83.4	83.4	82.9	41	57.2	1	3	338	0.00	29.921 
17:00	83.2	83.2	83.0	43	58.3	0	2	68	0.00	29.920 
17:05	82.8	82.8	82.4	42	57.3	0	2	68	0.00	29.920 
17:10	82.8	82.8	82.6	43	58.0	1	3	68	0.00	29.920 
17:15	82.6	82.6	82.2	42	57.2	1	5	68	0.00	29.920 
17:20	82.4	82.4	82.2	43	57.6	1	3	112	0.00	29.920 
17:25	82.2	82.2	82.3	45	58.7	1	4	90	0.00	29.920 
17:30	82.0	82.0	81.9	44	57.9	1	5	90	0.00	29.919 
17:35	81.6	81.6	81.6	44	57.5	0	2	68	0.00	29.919 
17:40	81.6	81.6	81.6	44	57.5	0	3	68	0.00	29.919 
17:45	81.4	81.4	81.5	45	58.0	0	2	68	0.00	29.911 
17:50	81.4	81.4	81.4	44	57.4	0	2	68	0.00	29.911 
17:55	81.4	81.4	81.6	46	58.6	0	2	68	0.00	29.911 
18:00	81.2	81.2	81.3	45	57.8	1	4	68	0.00	29.914 
18:05	81.2	81.2	81.6	47	59.0	0	3	135	0.00	29.914 
18:10	81.1	81.1	81.5	47	58.9	0	2	180	0.00	29.914 
18:15	80.9	80.9	81.3	47	58.8	1	4	180	0.00	29.907 
18:20	80.9	80.9	81.3	47	58.8	1	4	90	0.00	29.907 
18:25	80.7	80.7	81.3	49	59.7	0	3	112	0.00	29.907 
18:30	80.3	80.3	81.0	49	59.4	0	3	112	0.00	29.907 
18:35	80.1	80.1	80.8	49	59.2	0	2	112	0.00	29.907 
18:40	79.9	79.9	80.7	50	59.6	0	1	135	0.00	29.907 
18:45	79.8	79.8	80.6	50	59.5	0	3	135	0.00	29.904 
18:50	79.6	79.6	80.5	50	59.3	0	2	135	0.00	29.904 
18:55	79.4	79.4	80.5	52	60.2	0	1	135	0.00	29.904 
19:00	79.2	79.2	80.3	52	60.0	0	2	135	0.00	29.907 
19:05	78.8	78.8	79.9	51	59.1	0	1	135	0.00	29.907 
19:10	78.6	78.6	79.8	52	59.5	0	1	135	0.00	29.907 
19:15	78.5	78.5	79.7	52	59.4	0	1	135	0.00	29.915 
19:20	78.1	78.1	79.5	54	60.1	0	0	---	0.00	29.915 
19:25	77.7	77.7	79.2	54	59.7	0	0	---	0.00	29.915 
19:30	77.4	77.4	79.0	55	59.9	0	0	---	0.00	29.915 
19:35	77.0	77.0	78.7	56	60.1	0	0	---	0.00	29.915 
19:40	76.5	76.5	78.4	57	60.1	0	0	---	0.00	29.915 
19:45	76.1	76.1	78.1	58	60.2	0	0	---	0.00	29.920 
19:50	75.8	75.8	77.9	59	60.4	0	0	---	0.00	29.920 
19:55	75.6	75.6	77.7	60	60.7	0	0	---	0.00	29.920 
20:00	75.1	75.1	77.4	61	60.7	0	0	---	0.00	29.917 
20:05	74.7	74.7	74.7	62	60.8	0	0	---	0.00	29.917 
20:10	74.4	74.4	74.4	63	61.0	0	0	---	0.00	29.917 
20:15	74.0	74.0	74.0	64	61.0	0	0	---	0.00	29.913 
20:20	73.7	73.7	73.7	65	61.2	0	0	---	0.00	29.913 
20:25	73.3	73.3	73.3	65	60.8	0	0	---	0.00	29.913 
20:30	73.0	73.0	73.0	65	60.5	0	0	---	0.00	29.915 
20:35	72.8	72.8	72.8	66	60.8	0	0	---	0.00	29.915 
20:40	72.7	72.7	72.7	67	61.1	0	0	---	0.00	29.915 
20:45	72.5	72.5	72.5	68	61.3	0	0	---	0.00	29.920 
20:50	72.1	72.1	72.1	68	60.9	0	0	---	0.00	29.920 
20:55	71.8	71.8	71.8	68	60.7	0	0	---	0.00	29.920 
21:00	71.6	71.6	71.6	69	60.9	0	0	---	0.00	29.933 
21:05	71.5	71.5	71.5	71	61.6	0	0	---	0.00	29.933 
21:10	71.3	71.3	71.3	70	61.0	0	0	---	0.00	29.933 
21:15	71.1	71.1	71.1	71	61.2	0	0	---	0.00	29.944 
21:20	70.9	70.9	70.9	72	61.4	0	0	---	0.00	29.944 
21:25	70.9	70.9	70.9	72	61.4	0	0	---	0.00	29.944 
21:30	70.9	70.9	70.9	73	61.8	0	0	---	0.00	29.947 
21:35	70.9	70.9	70.9	73	61.8	0	0	---	0.00	29.947 
21:40	70.9	70.9	70.9	75	62.6	0	0	---	0.00	29.947 
21:45	70.9	70.9	70.9	76	62.9	0	0	---	0.00	29.956 
21:50	70.9	70.9	70.9	77	63.3	0	0	---	0.00	29.956 
21:55	70.9	70.9	70.9	77	63.3	0	0	---	0.00	29.956 
22:00	70.8	70.8	70.8	77	63.2	0	0	---	0.00	29.953 
22:05	70.8	70.8	70.8	78	63.6	0	0	---	0.00	29.953 
22:10	70.6	70.6	70.6	78	63.4	0	0	---	0.00	29.953 
22:15	70.4	70.4	70.4	78	63.2	0	0	---	0.00	29.944 
22:20	70.4	70.4	70.4	79	63.6	0	0	---	0.00	29.944 
22:25	70.4	70.4	70.4	78	63.2	0	0	---	0.00	29.944 
22:30	70.4	70.4	70.4	78	63.2	0	1	135	0.00	29.954 
22:35	70.8	70.8	70.8	77	63.2	0	1	135	0.00	29.954 
22:40	70.9	70.9	70.9	76	62.9	0	1	135	0.00	29.954 
22:45	71.1	71.1	71.1	76	63.1	0	0	---	0.00	29.953 
22:50	70.9	70.9	70.9	75	62.6	0	0	---	0.00	29.953 
22:55	70.9	70.9	70.9	75	62.6	0	0	---	0.00	29.953 
23:00	70.9	70.9	70.9	76	62.9	0	0	---	0.00	29.952 
23:05	70.9	70.9	70.9	77	63.3	0	0	---	0.00	29.952 
23:10	70.8	70.8	70.8	76	62.8	0	0	---	0.00	29.952 
23:15	70.8	70.8	70.8	77	63.2	0	0	---	0.00	29.945 
23:20	70.8	70.8	70.8	77	63.2	0	0	---	0.00	29.945 
23:25	70.6	70.6	70.6	77	63.0	0	0	---	0.00	29.945 
23:30	70.6	70.6	70.6	77	63.0	0	1	135	0.00	29.932 
23:35	70.4	70.4	70.4	77	62.8	0	1	135	0.00	29.932 
23:40	70.4	70.4	70.4	76	62.5	0	0	---	0.00	29.932 
23:45	70.3	70.3	70.3	76	62.4	0	1	135	0.00	29.926 
23:50	70.3	70.3	70.3	75	62.0	0	1	135	0.00	29.926 
23:55	70.1	70.1	70.1	76	62.2	0	0	---	0.00	29.926 

CoCoRaHS
IN-AL-39
A2 Web Hosting
Creative Commons License
GoDaddy
Look for:

loaded 2017-10-19 20:18:00 • last modified 2010-11-18 10:43:29
Privacy PolicyDisclaimer
• wx.awcolley.com is powered by PmWiki v.2002016 •
• all content (unless otherwise noted) © 2017 A W Colley